Time;durP1;ratioP1;P1;durP2;ratioP2;P2;SDS_P1;SDS_P2;PMS_P1;PMS_P2;Temp;Humidity;BMP_temperature;BMP_pressure;BME280_temperature;BME280_humidity;BME280_pressure;Samples;Min_cycle;Max_cycle;Signal;HPM_P1;HPM_P2
2021/12/12 00:02:07;;;;;;;21.02;9.32;;;;;;;2.41;100.00;99651.19;6306251;28;20519;-72
2021/12/12 00:05:09;;;;;;;28.10;13.20;;;;;;;2.40;100.00;99640.03;6324029;28;20119;-72
2021/12/12 00:08:11;;;;;;;26.05;11.73;;;;;;;2.50;100.00;99645.72;6322638;28;20051;-72
2021/12/12 00:11:15;;;;;;;28.10;12.88;;;;;;;2.38;100.00;99631.50;6322904;28;20389;-72
2021/12/12 00:14:22;;;;;;;24.65;11.50;;;;;;;2.39;100.00;99628.06;6323905;28;20484;-72
2021/12/12 00:17:24;;;;;;;17.60;8.10;;;;;;;2.43;100.00;99628.78;6323665;28;20047;-73
2021/12/12 00:20:28;;;;;;;21.33;9.82;;;;;;;2.36;100.00;99630.72;6322858;28;20084;-72
2021/12/12 00:23:29;;;;;;;28.17;11.40;;;;;;;2.43;100.00;99626.22;6322629;28;20052;-72
2021/12/12 00:26:30;;;;;;;25.23;11.32;;;;;;;2.44;100.00;99630.47;6305512;28;20097;-72
2021/12/12 00:29:31;;;;;;;14.85;7.75;;;;;;;2.38;100.00;99635.81;6323925;28;20127;-72
2021/12/12 00:32:36;;;;;;;23.55;11.75;;;;;;;2.44;100.00;99632.19;6305114;28;20056;-72
2021/12/12 00:35:37;;;;;;;19.13;10.73;;;;;;;2.34;100.00;99636.81;6323720;28;20488;-72
2021/12/12 00:38:38;;;;;;;18.33;9.60;;;;;;;2.45;100.00;99634.72;6322994;28;20552;-71
2021/12/12 00:41:45;;;;;;;15.32;7.40;;;;;;;2.33;100.00;99627.44;6305877;28;20036;-72
2021/12/12 00:44:51;;;;;;;18.83;9.48;;;;;;;2.33;100.00;99630.84;6323886;28;20087;-72
2021/12/12 00:47:51;;;;;;;17.35;8.38;;;;;;;2.38;100.00;99631.50;6323635;28;20068;-71
2021/12/12 00:50:52;;;;;;;17.55;8.63;;;;;;;2.35;100.00;99639.34;6323511;28;20448;-72
2021/12/12 00:53:55;;;;;;;21.92;10.35;;;;;;;2.54;100.00;99636.97;6323739;28;20055;-72
2021/12/12 00:56:56;;;;;;;18.05;9.90;;;;;;;2.48;100.00;99637.19;6323422;28;20492;-71
2021/12/12 00:59:56;;;;;;;24.02;11.02;;;;;;;2.48;100.00;99638.94;6322306;28;20042;-71
2021/12/12 01:02:58;;;;;;;16.83;8.40;;;;;;;2.38;100.00;99634.06;6323376;28;20590;-72
2021/12/12 01:06:00;;;;;;;17.40;7.60;;;;;;;2.39;100.00;99648.66;6320790;28;20054;-72
2021/12/12 01:09:07;;;;;;;7.18;5.00;;;;;;;2.56;100.00;99637.78;6321081;28;20079;-71
2021/12/12 01:12:11;;;;;;;15.85;8.80;;;;;;;2.41;100.00;99639.16;6323111;28;20403;-73
2021/12/12 01:15:36;;;;;;;19.98;8.75;;;;;;;2.43;100.00;99631.38;6323097;28;20522;-71
2021/12/12 01:18:45;;;;;;;18.65;8.90;;;;;;;2.44;100.00;99637.34;6321795;28;20048;-72
2021/12/12 01:21:50;;;;;;;13.23;7.10;;;;;;;2.36;100.00;99633.28;6322803;28;20044;-72
2021/12/12 01:24:53;;;;;;;16.20;8.07;;;;;;;2.42;100.00;99647.69;6304834;28;20109;-72
2021/12/12 01:27:54;;;;;;;13.95;7.85;;;;;;;2.43;100.00;99641.69;6303924;28;20036;-72
2021/12/12 01:30:58;;;;;;;16.67;8.38;;;;;;;2.51;100.00;99643.97;6322242;28;20636;-71
2021/12/12 01:34:10;;;;;;;13.30;7.88;;;;;;;2.44;100.00;99639.94;6322494;28;20046;-72
2021/12/12 01:40:28;;;;;;;17.75;7.95;;;;;;;2.42;100.00;99629.69;6322423;28;20055;-72
2021/12/12 01:43:39;;;;;;;19.17;9.13;;;;;;;2.50;100.00;99634.56;6322594;28;20051;-72
2021/12/12 01:46:47;;;;;;;12.73;6.20;;;;;;;2.34;100.00;99629.94;6322242;28;20444;-72
2021/12/12 01:49:51;;;;;;;17.63;7.55;;;;;;;2.38;100.00;99628.09;6320860;28;20086;-72
2021/12/12 01:52:53;;;;;;;14.88;7.25;;;;;;;2.25;100.00;99613.97;6322195;28;20484;-72
2021/12/12 01:56:06;;;;;;;12.18;7.35;;;;;;;2.32;100.00;99633.44;6320884;28;20098;-72
2021/12/12 01:59:09;;;;;;;16.13;8.85;;;;;;;2.30;100.00;99633.50;6321175;28;20143;-72
2021/12/12 02:02:16;;;;;;;15.32;7.68;;;;;;;2.36;100.00;99633.28;6320842;28;20040;-72
2021/12/12 02:05:18;;;;;;;14.57;7.70;;;;;;;2.28;100.00;99622.41;6322013;28;20039;-72
2021/12/12 02:08:20;;;;;;;16.35;8.05;;;;;;;2.30;100.00;99620.63;6320757;28;20105;-71
2021/12/12 02:11:28;;;;;;;17.88;7.70;;;;;;;2.22;100.00;99622.63;6320867;28;20075;-71
2021/12/12 02:14:32;;;;;;;16.80;9.05;;;;;;;2.35;100.00;99633.38;6320955;28;20048;-72
2021/12/12 02:17:40;;;;;;;12.85;6.82;;;;;;;2.19;100.00;99646.75;6321590;28;20070;-72
2021/12/12 02:21:04;;;;;;;16.10;8.13;;;;;;;2.29;100.00;99636.16;6321838;28;20040;-72
2021/12/12 02:37:11;;;;;;;22.38;10.18;;;;;;;2.38;100.00;99648.69;6306561;28;20040;-72
2021/12/12 02:40:17;;;;;;;21.65;10.55;;;;;;;2.52;100.00;99643.09;6321522;28;20461;-72
2021/12/12 02:43:23;;;;;;;17.13;8.68;;;;;;;2.39;100.00;99642.66;6320405;28;20048;-72
2021/12/12 02:46:29;;;;;;;14.05;6.20;;;;;;;2.32;100.00;99643.75;6320389;28;20044;-72
2021/12/12 02:52:40;;;;;;;20.02;9.50;;;;;;;2.38;100.00;99651.28;6321593;28;20128;-72
2021/12/12 02:55:46;;;;;;;14.88;7.18;;;;;;;2.28;100.00;99642.19;6320146;28;20106;-72
2021/12/12 02:58:48;;;;;;;13.13;7.75;;;;;;;2.36;100.00;99659.03;6320141;28;20098;-71
2021/12/12 03:02:05;;;;;;;21.13;10.32;;;;;;;2.37;100.00;99677.94;6321437;28;20047;-72
2021/12/12 03:05:07;;;;;;;15.20;8.20;;;;;;;2.26;100.00;99652.50;6321402;28;20044;-71
2021/12/12 03:08:09;;;;;;;27.13;9.55;;;;;;;2.32;100.00;99652.31;6320111;28;20040;-72
2021/12/12 03:11:10;;;;;;;20.77;9.53;;;;;;;2.35;100.00;99648.81;6303303;28;20051;-71
2021/12/12 03:14:12;;;;;;;19.55;9.23;;;;;;;2.25;100.00;99662.88;6303366;28;20040;-71
2021/12/12 03:17:17;;;;;;;16.20;8.05;;;;;;;2.26;100.00;99675.69;6319974;28;20048;-71
2021/12/12 03:20:32;;;;;;;28.30;8.88;;;;;;;2.33;100.00;99679.75;6321163;28;20042;-72
2021/12/12 03:23:35;;;;;;;22.85;11.38;;;;;;;2.22;100.00;99680.13;6321354;28;20047;-71
2021/12/12 03:26:37;;;;;;;21.75;11.43;;;;;;;2.23;100.00;99673.22;6320736;28;20415;-72
2021/12/12 03:29:39;;;;;;;21.90;9.10;;;;;;;2.26;100.00;99675.69;6305971;28;20036;-71
2021/12/12 03:32:40;;;;;;;19.75;9.13;;;;;;;2.06;100.00;99668.63;6324487;28;20109;-71
2021/12/12 03:35:47;;;;;;;28.17;12.60;;;;;;;2.17;100.00;99673.44;6325581;28;20075;-72
2021/12/12 03:38:53;;;;;;;21.75;10.88;;;;;;;2.25;100.00;99681.75;6323880;28;20051;-72
2021/12/12 03:41:57;;;;;;;27.83;13.27;;;;;;;2.18;100.00;99672.53;6325379;28;20150;-72
2021/12/12 03:45:00;;;;;;;17.30;9.77;;;;;;;2.11;100.00;99674.47;6324025;28;20047;-72
2021/12/12 03:48:09;;;;;;;25.88;12.23;;;;;;;2.12;100.00;99676.16;6325117;28;20373;-72
2021/12/12 03:51:12;;;;;;;21.33;9.55;;;;;;;2.06;100.00;99681.50;6325081;28;20515;-72
2021/12/12 03:54:14;;;;;;;23.38;10.68;;;;;;;2.11;100.00;99689.91;6323930;28;20395;-71
2021/12/12 03:57:17;;;;;;;22.00;10.70;;;;;;;1.98;100.00;99674.03;6325140;28;20127;-71
2021/12/12 04:00:24;;;;;;;21.40;9.93;;;;;;;2.07;100.00;99687.47;6324636;28;20040;-72
2021/12/12 04:03:26;;;;;;;24.23;11.77;;;;;;;2.06;100.00;99684.06;6323672;28;20032;-72
2021/12/12 04:06:29;;;;;;;23.67;11.20;;;;;;;2.03;100.00;99678.19;6323499;28;20036;-71
2021/12/12 04:09:30;;;;;;;25.80;11.75;;;;;;;1.89;100.00;99689.72;6323784;28;20076;-71
2021/12/12 04:12:31;;;;;;;24.75;12.38;;;;;;;2.04;100.00;99679.84;6324747;28;20388;-72
2021/12/12 04:15:32;;;;;;;28.45;13.70;;;;;;;1.88;100.00;99685.50;6324611;28;20047;-71
2021/12/12 04:18:34;;;;;;;25.25;11.57;;;;;;;1.88;100.00;99677.78;6323287;28;20515;-72
2021/12/12 04:21:36;;;;;;;28.15;11.48;;;;;;;1.93;100.00;99682.75;6323218;28;20093;-72
2021/12/12 04:24:41;;;;;;;25.95;12.27;;;;;;;1.93;100.00;99673.31;6323320;28;20071;-73
2021/12/12 04:27:44;;;;;;;26.77;12.70;;;;;;;1.83;100.00;99682.19;6322989;28;20051;-73
2021/12/12 04:30:45;;;;;;;29.38;11.43;;;;;;;1.80;100.00;99670.28;6306144;28;20052;-73
2021/12/12 04:33:46;;;;;;;16.20;8.90;;;;;;;1.78;100.00;99673.81;6323087;28;20044;-73
2021/12/12 04:36:48;;;;;;;29.55;13.25;;;;;;;1.74;100.00;99667.06;6323032;28;20047;-73
2021/12/12 04:39:53;;;;;;;29.08;12.88;;;;;;;1.69;100.00;99658.63;6322622;28;20734;-73
2021/12/12 04:42:56;;;;;;;25.45;12.23;;;;;;;1.80;100.00;99670.28;6322134;28;20040;-73
2021/12/12 04:46:07;;;;;;;21.92;9.85;;;;;;;1.77;100.00;99677.25;6321732;28;20407;-73
2021/12/12 04:52:36;;;;;;;22.17;10.88;;;;;;;1.79;100.00;99678.91;6322531;28;20064;-73
2021/12/12 04:55:52;;;;;;;31.02;12.38;;;;;;;1.67;100.00;99668.13;6323691;28;20055;-74
2021/12/12 04:59:16;;;;;;;18.83;9.70;;;;;;;1.70;100.00;99675.75;6322319;28;20048;-73
2021/12/12 05:02:22;;;;;;;25.15;11.43;;;;;;;1.64;100.00;99668.25;6313935;28;20139;-73
2021/12/12 05:05:29;;;;;;;23.67;11.20;;;;;;;1.78;100.00;99684.94;6323365;28;20051;-73
2021/12/12 05:08:41;;;;;;;24.90;10.02;;;;;;;1.85;100.00;99689.88;6321865;28;20055;-73
2021/12/12 05:11:51;;;;;;;19.67;10.65;;;;;;;1.87;100.00;99685.53;6323412;28;20067;-73
2021/12/12 05:14:57;;;;;;;23.25;11.13;;;;;;;1.79;100.00;99678.03;6323065;28;20040;-73
2021/12/12 05:18:04;;;;;;;18.38;9.00;;;;;;;1.79;100.00;99684.06;6323068;28;20064;-73
2021/12/12 05:21:09;;;;;;;19.23;10.23;;;;;;;1.80;100.00;99677.16;6322846;28;20057;-73
2021/12/12 05:24:13;;;;;;;25.17;11.13;;;;;;;1.79;100.00;99667.75;6321897;28;20048;-73
2021/12/12 05:27:17;;;;;;;38.22;9.63;;;;;;;1.71;100.00;99670.59;6322760;28;20044;-72
2021/12/12 05:30:22;;;;;;;21.27;10.88;;;;;;;1.71;100.00;99672.28;6321411;28;20139;-73
2021/12/12 05:33:24;;;;;;;21.00;9.50;;;;;;;1.76;100.00;99673.00;6321519;28;20476;-73
2021/12/12 05:36:28;;;;;;;21.08;10.88;;;;;;;1.80;100.00;99669.44;6321544;28;20113;-73
2021/12/12 05:39:30;;;;;;;17.70;7.93;;;;;;;1.76;100.00;99673.00;6322768;28;20055;-73
2021/12/12 05:42:32;;;;;;;20.50;9.77;;;;;;;1.79;100.00;99676.34;6322450;28;20068;-73
2021/12/12 05:45:35;;;;;;;27.20;11.27;;;;;;;1.78;100.00;99668.66;6321167;28;20500;-73
2021/12/12 05:48:36;;;;;;;25.00;11.48;;;;;;;1.86;100.00;99676.16;6321834;28;20275;-73
2021/12/12 05:51:37;;;;;;;27.33;11.95;;;;;;;1.76;100.00;99671.25;6321437;28;20438;-73
2021/12/12 05:54:39;;;;;;;23.58;11.20;;;;;;;1.81;100.00;99665.97;6322558;28;20480;-73
2021/12/12 05:57:43;;;;;;;17.20;8.87;;;;;;;1.71;100.00;99680.88;6322366;28;20130;-73
2021/12/12 06:00:54;;;;;;;20.20;10.50;;;;;;;1.80;100.00;99674.59;6320238;28;20618;-74
2021/12/12 06:03:55;;;;;;;14.02;7.75;;;;;;;1.71;100.00;99670.59;6320533;28;20414;-73
2021/12/12 06:06:56;;;;;;;20.77;10.38;;;;;;;1.70;100.00;99676.59;6321002;28;20075;-72
2021/12/12 06:10:00;;;;;;;24.50;10.85;;;;;;;1.71;100.00;99678.31;6304366;28;20392;-73
2021/12/12 06:13:02;;;;;;;16.92;8.38;;;;;;;1.63;100.00;99669.97;6320912;28;20161;-72
2021/12/12 06:16:03;;;;;;;;;;;;;;;1.73;100.00;99670.50;6322527;28;20052;-73
2021/12/12 06:19:12;;;;;;;17.52;7.82;;;;;;;1.73;100.00;99670.50;6320815;28;19974;-73
2021/12/12 06:22:14;;;;;;;15.85;8.52;;;;;;;1.72;100.00;99661.97;6321784;28;20419;-72
2021/12/12 06:25:15;;;;;;;25.50;9.50;;;;;;;1.85;100.00;99659.00;6322250;28;20051;-73
2021/12/12 06:28:21;;;;;;;23.10;11.02;;;;;;;1.81;100.00;99661.69;6321755;28;20048;-73
2021/12/12 06:31:22;;;;;;;17.55;8.60;;;;;;;1.72;100.00;99664.53;6320946;28;20048;-73
2021/12/12 06:34:23;;;;;;;17.63;7.50;;;;;;;1.81;100.00;99664.25;6320989;28;20044;-73
2021/12/12 06:37:25;;;;;;;22.05;10.77;;;;;;;1.84;100.00;99650.47;6321155;28;20044;-73
2021/12/12 06:40:27;;;;;;;14.82;7.32;;;;;;;1.76;100.00;99655.84;6321748;28;20123;-73
2021/12/12 06:43:29;;;;;;;20.40;9.00;;;;;;;1.80;100.00;99665.13;6321866;28;20126;-73
2021/12/12 06:46:30;;;;;;;18.13;10.10;;;;;;;1.85;100.00;99670.13;6321212;28;20044;-72
2021/12/12 06:49:31;;;;;;;20.20;9.40;;;;;;;1.78;100.00;99674.63;6321350;28;20060;-76
2021/12/12 06:52:33;;;;;;;17.67;9.40;;;;;;;1.84;100.00;99671.03;6320205;28;20047;-73
2021/12/12 06:55:36;;;;;;;18.42;8.73;;;;;;;1.93;100.00;99664.75;6321438;28;20048;-73
2021/12/12 06:58:38;;;;;;;12.50;6.43;;;;;;;1.92;100.00;99671.63;6319876;28;20138;-73
2021/12/12 07:01:39;;;;;;;18.67;9.40;;;;;;;1.97;100.00;99674.06;6321570;28;20048;-72
2021/12/12 07:04:43;;;;;;;14.20;8.27;;;;;;;1.96;100.00;99678.38;6306709;28;20040;-73
2021/12/12 07:07:45;;;;;;;15.00;7.28;;;;;;;1.85;100.00;99677.00;6326062;28;20044;-73
2021/12/12 07:10:46;;;;;;;17.48;9.20;;;;;;;1.93;100.00;99687.91;6324732;28;20044;-73
2021/12/12 07:13:49;;;;;;;15.48;8.38;;;;;;;1.93;100.00;99681.03;6324996;28;20354;-72
2021/12/12 07:16:50;;;;;;;20.00;10.88;;;;;;;1.90;100.00;99678.56;6307986;28;20048;-73
2021/12/12 07:19:52;;;;;;;23.92;11.88;;;;;;;1.88;100.00;99680.34;6324507;28;20126;-73
2021/12/12 07:22:53;;;;;;;14.23;7.13;;;;;;;1.99;100.00;99682.56;6324480;28;20044;-73
2021/12/12 07:25:54;;;;;;;14.63;8.68;;;;;;;2.04;100.00;99682.41;6325929;28;20055;-73
2021/12/12 07:28:57;;;;;;;17.45;9.23;;;;;;;2.07;100.00;99679.75;6323805;28;20052;-73
2021/12/12 07:31:58;;;;;;;9.30;5.60;;;;;;;1.95;100.00;99686.13;6324710;28;20048;-73
2021/12/12 07:34:59;;;;;;;15.20;8.20;;;;;;;2.21;100.00;99693.03;6306720;28;20040;-73
2021/12/12 07:38:02;;;;;;;21.73;11.30;;;;;;;2.14;100.00;99697.53;6324790;28;20505;-73
2021/12/12 07:41:05;;;;;;;21.92;10.57;;;;;;;1.89;100.00;99694.88;6322945;28;20109;-73
2021/12/12 07:44:08;;;;;;;21.23;11.05;;;;;;;1.99;100.00;99701.41;6323367;28;20064;-72
2021/12/12 07:47:13;;;;;;;15.35;8.90;;;;;;;1.98;100.00;99702.31;6322560;28;20040;-73
2021/12/12 07:50:15;;;;;;;17.40;9.85;;;;;;;2.08;100.00;99691.72;6324507;28;20055;-73
2021/12/12 07:53:19;;;;;;;18.42;10.20;;;;;;;1.85;100.00;99688.13;6322849;28;20117;-73
2021/12/12 07:56:21;;;;;;;21.48;10.40;;;;;;;1.97;100.00;99697.22;6306533;28;20399;-74
2021/12/12 07:59:22;;;;;;;33.67;14.38;;;;;;;1.92;100.00;99696.53;6323401;28;20036;-74
2021/12/12 08:02:23;;;;;;;15.73;8.07;;;;;;;1.97;100.00;99702.38;6324684;28;20043;-73
2021/12/12 08:05:29;;;;;;;85.25;26.42;;;;;;;1.92;100.00;99694.78;6324542;28;20484;-73
2021/12/12 08:08:31;;;;;;;21.10;9.57;;;;;;;2.03;100.00;99694.44;6322791;28;20047;-73
2021/12/12 08:11:33;;;;;;;23.80;9.47;;;;;;;2.04;100.00;99696.16;6322548;28;20036;-73
2021/12/12 08:14:34;;;;;;;20.60;11.15;;;;;;;2.06;100.00;99686.66;6319740;28;20276;-73
2021/12/12 08:17:36;;;;;;;23.88;10.65;;;;;;;2.08;100.00;99696.88;6324400;28;20132;-73
2021/12/12 08:20:39;;;;;;;23.98;10.50;;;;;;;2.06;100.00;99688.34;6324265;28;20044;-73
2021/12/12 08:23:41;;;;;;;24.58;9.88;;;;;;;2.09;100.00;99678.81;6323056;28;20036;-73
2021/12/12 08:26:44;;;;;;;24.40;11.75;;;;;;;2.03;100.00;99678.19;6322922;28;20048;-73
2021/12/12 08:29:46;;;;;;;20.20;9.55;;;;;;;2.10;100.00;99690.81;6323909;28;20127;-73
2021/12/12 08:32:49;;;;;;;22.50;9.90;;;;;;;2.16;100.00;99685.47;6323028;28;20040;-73
2021/12/12 08:35:50;;;;;;;15.50;8.68;;;;;;;2.16;100.00;99684.59;6324304;28;20046;-73
2021/12/12 08:38:51;;;;;;;16.08;8.77;;;;;;;2.11;100.00;99679.59;6322820;28;20040;-73
2021/12/12 08:41:55;;;;;;;18.10;9.20;;;;;;;2.12;100.00;99683.00;6305941;28;20047;-73
2021/12/12 08:44:57;;;;;;;17.58;8.82;;;;;;;2.18;100.00;99677.66;6323712;28;20047;-73
2021/12/12 08:48:01;;;;;;;13.60;8.20;;;;;;;2.32;100.00;99669.50;6323304;28;20467;-73
2021/12/12 08:51:07;;;;;;;20.85;10.68;;;;;;;2.36;100.00;99671.09;6323720;28;20328;-73
2021/12/12 08:54:15;;;;;;;13.23;7.43;;;;;;;2.29;100.00;99647.28;6323606;28;20432;-72
2021/12/12 08:57:33;;;;;;;13.75;7.60;;;;;;;2.32;100.00;99654.88;6323778;28;20051;-72
2021/12/12 09:00:39;;;;;;;14.88;7.47;;;;;;;2.49;100.00;99648.31;6322114;28;20044;-73
2021/12/12 09:03:52;;;;;;;17.23;7.65;;;;;;;2.58;100.00;99655.75;6322364;28;20075;-73
2021/12/12 09:07:09;;;;;;;29.20;15.77;;;;;;;2.58;100.00;99655.75;6304790;28;20052;-73
2021/12/12 09:10:21;;;;;;;18.25;8.90;;;;;;;2.55;100.00;99653.25;6323028;28;20044;-74
2021/12/12 09:13:26;;;;;;;19.73;9.85;;;;;;;2.53;100.00;99642.19;6321950;28;20067;-73
2021/12/12 09:16:40;;;;;;;21.60;8.77;;;;;;;2.55;100.00;99641.25;6323185;28;20048;-73
2021/12/12 09:19:48;;;;;;;19.63;9.20;;;;;;;2.65;98.93;99641.75;6323101;28;20036;-73
2021/12/12 09:23:06;;;;;;;26.33;9.90;;;;;;;2.73;100.00;99642.31;6323017;28;20078;-73
2021/12/12 09:26:21;;;;;;;16.63;8.48;;;;;;;2.57;98.71;99641.19;6322188;28;20401;-73
2021/12/12 09:29:52;;;;;;;23.73;11.88;;;;;;;2.70;100.00;99647.59;6321535;28;20488;-73
2021/12/12 09:32:59;;;;;;;18.00;8.68;;;;;;;2.72;100.00;99639.78;6322795;28;20044;-73
2021/12/12 09:36:14;;;;;;;17.15;8.10;;;;;;;2.61;100.00;99647.91;6322802;28;20044;-73
2021/12/12 09:39:32;;;;;;;11.35;6.80;;;;;;;2.69;100.00;99648.47;6321588;28;20123;-72
2021/12/12 09:42:59;;;;;;;13.38;6.93;;;;;;;2.59;100.00;99641.97;6322197;28;20392;-73
2021/12/12 09:46:06;;;;;;;26.73;10.80;;;;;;;2.64;100.00;99637.50;6321032;28;20051;-73
2021/12/12 09:53:03;;;;;;;21.90;10.63;;;;;;;2.67;100.00;99631.41;6322052;28;20043;-73
2021/12/12 09:56:27;;;;;;;18.25;8.60;;;;;;;2.63;100.00;99639.22;6321838;28;20052;-73
2021/12/12 10:00:05;;;;;;;19.40;10.88;;;;;;;2.72;100.00;99643.22;6315398;28;20075;-73
2021/12/12 10:03:16;;;;;;;22.08;11.52;;;;;;;2.77;100.00;99651.63;6322070;28;20048;-73
2021/12/12 10:06:43;;;;;;;22.13;11.77;;;;;;;2.78;100.00;99647.31;6322072;28;20044;-73
2021/12/12 10:09:55;;;;;;;23.25;13.70;;;;;;;2.70;100.00;99651.88;6322220;28;20067;-73
2021/12/12 10:13:30;;;;;;;23.27;12.82;;;;;;;2.84;100.00;99644.50;6321751;28;20058;-74
2021/12/12 10:16:46;;;;;;;36.13;18.15;;;;;;;2.83;100.00;99650.56;6295400;28;20052;-75
2021/12/12 10:19:57;;;;;;;28.73;15.23;;;;;;;2.78;100.00;99653.31;6322194;28;20105;-73
2021/12/12 10:23:16;;;;;;;33.40;19.50;;;;;;;2.85;100.00;99666.81;6321937;28;20044;-73
2021/12/12 10:26:23;;;;;;;29.98;16.30;;;;;;;2.77;100.00;99653.38;6322161;28;20047;-73
2021/12/12 10:29:31;;;;;;;29.35;14.65;;;;;;;2.91;100.00;99658.88;6321675;28;20054;-74
2021/12/12 10:32:40;;;;;;;23.73;11.55;;;;;;;2.80;100.00;99655.81;6320585;28;20060;-73
2021/12/12 10:36:03;;;;;;;19.60;9.23;;;;;;;2.71;100.00;99664.72;6321967;28;20044;-73
2021/12/12 10:39:09;;;;;;;16.70;10.10;;;;;;;2.89;100.00;99658.09;6325945;28;20078;-74
2021/12/12 10:42:14;;;;;;;18.90;11.32;;;;;;;2.67;100.00;99660.56;6325299;28;20463;-73
2021/12/12 10:45:25;;;;;;;22.92;11.50;;;;;;;2.85;100.00;99664.25;6327041;28;20036;-73
2021/12/12 10:48:38;;;;;;;14.88;8.32;;;;;;;2.67;100.00;99659.72;6326806;28;20510;-73
2021/12/12 10:51:47;;;;;;;23.52;11.77;;;;;;;2.78;100.00;99652.47;6326662;28;20373;-74
2021/12/12 10:54:53;;;;;;;19.75;9.88;;;;;;;2.81;100.00;99663.50;6326545;28;20124;-74
2021/12/12 10:58:00;;;;;;;28.45;13.48;;;;;;;2.96;100.00;99669.00;6326476;28;20090;-73
2021/12/12 11:01:07;;;;;;;26.88;13.93;;;;;;;2.83;100.00;99666.03;6326429;28;20044;-73
2021/12/12 11:04:15;;;;;;;18.98;10.13;;;;;;;2.87;100.00;99665.03;6326395;28;20070;-73
2021/12/12 11:07:24;;;;;;;24.17;11.80;;;;;;;2.92;100.00;99660.53;6326115;28;20097;-73
2021/12/12 11:10:29;;;;;;;31.75;11.93;;;;;;;2.99;100.00;99658.59;6326367;28;20555;-74
2021/12/12 11:13:42;;;;;;;19.50;10.95;;;;;;;2.85;100.00;99671.16;6308023;28;20052;-74
2021/12/12 11:16:50;;;;;;;20.17;10.52;;;;;;;2.76;100.00;99670.56;6326043;28;20052;-73
2021/12/12 11:20:07;;;;;;;20.30;11.35;;;;;;;2.77;100.00;99672.25;6325842;28;20036;-75
2021/12/12 11:23:31;;;;;;;21.73;11.45;;;;;;;2.85;100.00;99660.84;6326129;28;20047;-74
2021/12/12 11:26:40;;;;;;;16.65;8.18;;;;;;;2.74;100.00;99664.63;6324715;28;20040;-74
2021/12/12 11:29:47;;;;;;;17.55;9.27;;;;;;;2.75;100.00;99675.78;6325584;28;20377;-74
2021/12/12 11:32:53;;;;;;;37.70;18.20;;;;;;;2.87;100.00;99683.06;6325859;28;20040;-73
2021/12/12 11:35:57;;;;;;;19.15;11.75;;;;;;;2.84;100.00;99678.00;6325588;28;20048;-73
2021/12/12 11:39:08;;;;;;;18.92;9.10;;;;;;;2.78;100.00;99686.81;6325674;28;20040;-73
2021/12/12 11:42:15;;;;;;;24.98;13.30;;;;;;;2.92;100.00;99670.00;6325499;28;20438;-74
2021/12/12 11:45:30;;;;;;;25.20;14.35;;;;;;;2.85;100.00;99676.28;6323226;28;20085;-73
2021/12/12 11:48:56;;;;;;;19.05;10.43;;;;;;;2.72;100.00;99681.00;6323638;28;20111;-73
2021/12/12 11:52:08;;;;;;;17.90;10.18;;;;;;;2.72;100.00;99684.44;6324368;28;20040;-74
2021/12/12 11:55:19;;;;;;;20.52;11.43;;;;;;;2.76;100.00;99687.75;6321933;28;20071;-73
2021/12/12 11:58:36;;;;;;;20.85;10.80;;;;;;;2.77;100.00;99697.16;6320801;28;20377;-73
2021/12/12 12:01:46;;;;;;;25.20;14.23;;;;;;;2.87;100.00;99695.13;6321536;28;20043;-73
2021/12/12 12:05:00;;;;;;;22.95;12.90;;;;;;;2.80;100.00;99713.38;6323677;28;20036;-73
2021/12/12 12:08:32;;;;;;;35.80;17.52;;;;;;;2.72;100.00;99691.31;6321506;28;20063;-74
2021/12/12 12:11:33;;;;;;;31.65;15.23;;;;;;;2.76;100.00;99701.50;6323271;28;20478;-73
2021/12/12 12:15:06;;;;;;;16.35;9.13;;;;;;;2.81;100.00;99701.31;6323533;28;20047;-73
2021/12/12 12:18:38;;;;;;;19.38;11.23;;;;;;;2.68;100.00;99694.91;6321967;28;20069;-73
2021/12/12 12:21:53;;;;;;;20.40;10.88;;;;;;;2.78;100.00;99699.69;6321075;28;20039;-73
2021/12/12 12:29:04;;;;;;;23.92;12.38;;;;;;;2.70;100.00;99709.44;6322988;28;20044;-73
2021/12/12 12:32:56;;;;;;;18.92;9.05;;;;;;;2.89;100.00;99713.94;6319892;28;20075;-74
2021/12/12 12:36:37;;;;;;;19.23;11.15;;;;;;;2.73;100.00;99706.72;6286014;28;20546;-74
2021/12/12 12:39:57;;;;;;;23.05;10.93;;;;;;;2.75;100.00;99719.56;6319742;28;20040;-73
2021/12/12 12:43:24;;;;;;;21.02;9.48;;;;;;;2.69;100.00;99714.63;6320323;28;20036;-73
2021/12/12 12:46:37;;;;;;;24.88;12.07;;;;;;;2.78;100.00;99720.31;6321213;28;20040;-74
2021/12/12 12:49:38;;;;;;;24.48;13.63;;;;;;;2.82;100.00;99726.19;6319519;28;20032;-74
2021/12/12 12:53:17;;;;;;;39.30;15.35;;;;;;;2.70;100.00;99714.59;6322566;28;20431;-73
2021/12/12 12:56:49;;;;;;;24.90;12.20;;;;;;;2.73;100.00;99722.19;6321365;28;20044;-74
2021/12/12 13:00:07;;;;;;;26.25;13.32;;;;;;;2.86;100.00;99724.34;6320176;28;20057;-73
2021/12/12 13:03:34;;;;;;;22.48;13.18;;;;;;;2.77;100.00;99736.66;6320072;28;20046;-73
2021/12/12 13:07:01;;;;;;;18.20;9.95;;;;;;;2.63;100.00;99729.38;6321171;28;20044;-73
2021/12/12 13:10:07;;;;;;;21.75;11.68;;;;;;;2.75;100.00;99740.19;6321142;28;20048;-74
2021/12/12 13:13:17;;;;;;;28.85;15.77;;;;;;;2.62;100.00;99740.59;6322356;28;20046;-73
2021/12/12 13:16:54;;;;;;;28.27;13.55;;;;;;;2.74;100.00;99747.06;6322135;28;20504;-73
2021/12/12 13:19:55;;;;;;;25.17;12.35;;;;;;;2.50;100.00;99758.19;6319409;28;20048;-74
2021/12/12 13:23:08;;;;;;;29.05;14.63;;;;;;;2.69;100.00;99773.88;6322019;28;20071;-73
2021/12/12 13:26:14;;;;;;;23.50;12.40;;;;;;;2.57;100.00;99773.41;6322062;28;20032;-73
2021/12/12 13:29:31;;;;;;;21.95;10.80;;;;;;;2.66;100.00;99755.94;6321631;28;20060;-73
2021/12/12 13:32:56;;;;;;;25.02;12.77;;;;;;;2.53;100.00;99761.50;6317795;28;20059;-74
2021/12/12 13:36:03;;;;;;;29.35;13.13;;;;;;;2.42;100.00;99786.75;6300675;28;20052;-73
2021/12/12 13:39:24;;;;;;;31.63;12.68;;;;;;;2.34;100.00;99779.28;6321652;28;20071;-73
2021/12/12 13:43:06;;;;;;;30.60;15.70;;;;;;;2.36;100.00;99786.94;6320412;28;20051;-73
2021/12/12 13:46:52;;;;;;;32.03;14.60;;;;;;;2.38;100.00;99796.31;6318661;28;20044;-74
2021/12/12 13:50:08;;;;;;;31.95;14.27;;;;;;;2.33;100.00;99803.34;6289123;28;20464;-73
2021/12/12 13:53:30;;;;;;;35.47;16.00;;;;;;;2.54;100.00;99812.13;6317217;28;20461;-73
2021/12/12 13:56:44;;;;;;;36.75;14.77;;;;;;;2.44;100.00;99815.03;6316215;28;20051;-73
2021/12/12 14:00:17;;;;;;;30.35;13.90;;;;;;;2.38;100.00;99809.19;6319774;28;20059;-73
2021/12/12 14:03:32;;;;;;;25.38;13.57;;;;;;;2.30;100.00;99833.50;6331844;28;20039;-73
2021/12/12 14:06:36;;;;;;;30.58;15.40;;;;;;;2.42;100.00;99833.94;6329232;28;20032;-73
2021/12/12 14:09:39;;;;;;;35.20;15.57;;;;;;;2.48;100.00;99834.66;6327191;28;20059;-73
2021/12/12 14:12:42;;;;;;;26.35;15.15;;;;;;;2.39;100.00;99846.09;6323446;28;20044;-73
2021/12/12 14:16:12;;;;;;;26.05;13.73;;;;;;;2.25;100.00;99843.94;6316700;28;20048;-74
2021/12/12 14:19:21;;;;;;;30.33;14.52;;;;;;;2.30;100.00;99860.06;6311199;28;20056;-73
2021/12/12 14:22:23;;;;;;;25.27;13.27;;;;;;;2.24;100.00;99862.00;6320082;28;20075;-73
2021/12/12 14:25:24;;;;;;;19.85;9.95;;;;;;;2.22;100.00;99862.91;6303146;28;20039;-73
2021/12/12 14:28:28;;;;;;;37.55;17.77;;;;;;;2.30;100.00;99869.53;6319953;28;20168;-73
2021/12/12 14:31:43;;;;;;;36.03;15.35;;;;;;;2.17;100.00;99889.66;6319541;28;20064;-73
2021/12/12 14:34:53;;;;;;;26.48;12.65;;;;;;;2.18;100.00;99878.47;6320877;28;20040;-73
2021/12/12 14:37:54;;;;;;;31.17;15.05;;;;;;;2.14;100.00;99893.16;6320823;28;20180;-73
2021/12/12 14:40:59;;;;;;;24.23;9.80;;;;;;;1.94;100.00;99893.72;6319690;28;20059;-73
2021/12/12 14:44:03;;;;;;;28.58;12.75;;;;;;;2.05;100.00;99890.00;6320718;28;20442;-73
2021/12/12 14:47:13;;;;;;;35.70;16.50;;;;;;;1.97;100.00;99898.78;6320726;28;20077;-74
2021/12/12 14:50:29;;;;;;;33.72;14.25;;;;;;;1.87;100.00;99904.22;6321268;28;20404;-73
2021/12/12 14:53:36;;;;;;;30.50;14.73;;;;;;;2.08;100.00;99911.38;6320867;28;20477;-73
2021/12/12 14:56:46;;;;;;;26.10;12.65;;;;;;;1.98;100.00;99910.78;6320667;28;20089;-74
2021/12/12 14:59:57;;;;;;;30.27;15.35;;;;;;;1.99;100.00;99914.19;6320806;28;20354;-74
2021/12/12 15:03:05;;;;;;;31.23;15.50;;;;;;;1.84;100.00;99909.47;6320514;28;20040;-73